sensor_id;sensor_type;location;lat;lon;timestamp;P1;durP1;ratioP1;P2;durP2;ratioP2
75358;SDS011;64046;51.978;5.934;2024-02-28T00:00:20;43.10;;;20.25;;
75358;SDS011;64046;51.978;5.934;2024-02-28T00:02:49;57.75;;;24.23;;
75358;SDS011;64046;51.978;5.934;2024-02-28T00:05:19;44.63;;;19.40;;
75358;SDS011;64046;51.978;5.934;2024-02-28T00:07:51;41.17;;;18.60;;
75358;SDS011;64046;51.978;5.934;2024-02-28T00:10:20;50.70;;;21.00;;
75358;SDS011;64046;51.978;5.934;2024-02-28T00:12:49;43.35;;;20.17;;
75358;SDS011;64046;51.978;5.934;2024-02-28T00:15:19;31.77;;;15.93;;
75358;SDS011;64046;51.978;5.934;2024-02-28T00:17:51;36.80;;;17.85;;
75358;SDS011;64046;51.978;5.934;2024-02-28T00:20:21;44.20;;;19.83;;
75358;SDS011;64046;51.978;5.934;2024-02-28T00:22:55;51.42;;;21.75;;
75358;SDS011;64046;51.978;5.934;2024-02-28T00:25:25;44.28;;;21.17;;
75358;SDS011;64046;51.978;5.934;2024-02-28T00:27:54;31.40;;;15.68;;
75358;SDS011;64046;51.978;5.934;2024-02-28T00:30:24;44.00;;;19.15;;
75358;SDS011;64046;51.978;5.934;2024-02-28T00:32:54;34.25;;;17.95;;
75358;SDS011;64046;51.978;5.934;2024-02-28T00:35:23;32.20;;;15.35;;
75358;SDS011;64046;51.978;5.934;2024-02-28T00:37:55;38.35;;;16.48;;
75358;SDS011;64046;51.978;5.934;2024-02-28T00:40:25;63.40;;;22.42;;
75358;SDS011;64046;51.978;5.934;2024-02-28T00:42:54;39.33;;;16.65;;
75358;SDS011;64046;51.978;5.934;2024-02-28T00:45:23;37.15;;;17.33;;
75358;SDS011;64046;51.978;5.934;2024-02-28T00:47:53;86.25;;;23.27;;
75358;SDS011;64046;51.978;5.934;2024-02-28T00:50:23;46.15;;;17.23;;
75358;SDS011;64046;51.978;5.934;2024-02-28T00:52:53;42.63;;;18.05;;
75358;SDS011;64046;51.978;5.934;2024-02-28T00:55:25;33.75;;;15.73;;
75358;SDS011;64046;51.978;5.934;2024-02-28T00:57:54;42.80;;;22.25;;
75358;SDS011;64046;51.978;5.934;2024-02-28T01:00:24;49.67;;;22.02;;
75358;SDS011;64046;51.978;5.934;2024-02-28T01:02:54;48.00;;;21.55;;
75358;SDS011;64046;51.978;5.934;2024-02-28T01:05:23;32.95;;;16.23;;
75358;SDS011;64046;51.978;5.934;2024-02-28T01:07:52;38.15;;;19.02;;
75358;SDS011;64046;51.978;5.934;2024-02-28T01:10:25;36.83;;;18.67;;
75358;SDS011;64046;51.978;5.934;2024-02-28T01:12:54;39.10;;;19.33;;
75358;SDS011;64046;51.978;5.934;2024-02-28T01:15:23;46.58;;;22.00;;
75358;SDS011;64046;51.978;5.934;2024-02-28T01:17:53;41.97;;;20.20;;
75358;SDS011;64046;51.978;5.934;2024-02-28T01:20:22;44.15;;;21.63;;
75358;SDS011;64046;51.978;5.934;2024-02-28T01:22:51;41.58;;;21.17;;
75358;SDS011;64046;51.978;5.934;2024-02-28T01:25:21;44.33;;;21.27;;
75358;SDS011;64046;51.978;5.934;2024-02-28T01:27:53;49.20;;;21.88;;
75358;SDS011;64046;51.978;5.934;2024-02-28T01:30:25;38.35;;;19.85;;
75358;SDS011;64046;51.978;5.934;2024-02-28T01:32:54;44.85;;;21.52;;
75358;SDS011;64046;51.978;5.934;2024-02-28T01:35:23;39.75;;;19.35;;
75358;SDS011;64046;51.978;5.934;2024-02-28T01:37:53;39.40;;;20.33;;
75358;SDS011;64046;51.978;5.934;2024-02-28T01:40:22;35.67;;;18.35;;
75358;SDS011;64046;51.978;5.934;2024-02-28T01:42:54;42.70;;;20.00;;
75358;SDS011;64046;51.978;5.934;2024-02-28T01:45:23;36.83;;;19.00;;
75358;SDS011;64046;51.978;5.934;2024-02-28T01:47:53;34.53;;;16.92;;
75358;SDS011;64046;51.978;5.934;2024-02-28T01:50:22;38.45;;;19.70;;
75358;SDS011;64046;51.978;5.934;2024-02-28T01:52:52;36.65;;;16.70;;
75358;SDS011;64046;51.978;5.934;2024-02-28T01:55:21;38.72;;;18.60;;
75358;SDS011;64046;51.978;5.934;2024-02-28T01:57:51;35.92;;;17.30;;
75358;SDS011;64046;51.978;5.934;2024-02-28T02:00:23;34.22;;;16.77;;
75358;SDS011;64046;51.978;5.934;2024-02-28T02:02:54;37.55;;;18.85;;
75358;SDS011;64046;51.978;5.934;2024-02-28T02:05:23;42.70;;;18.55;;
75358;SDS011;64046;51.978;5.934;2024-02-28T02:07:52;43.08;;;17.27;;
75358;SDS011;64046;51.978;5.934;2024-02-28T02:10:22;46.58;;;17.92;;
75358;SDS011;64046;51.978;5.934;2024-02-28T02:12:55;39.63;;;17.85;;
75358;SDS011;64046;51.978;5.934;2024-02-28T02:15:24;58.97;;;22.38;;
75358;SDS011;64046;51.978;5.934;2024-02-28T02:17:55;55.70;;;22.10;;
75358;SDS011;64046;51.978;5.934;2024-02-28T02:20:24;45.75;;;19.00;;
75358;SDS011;64046;51.978;5.934;2024-02-28T02:22:57;67.57;;;22.42;;
75358;SDS011;64046;51.978;5.934;2024-02-28T02:25:27;40.45;;;20.40;;
75358;SDS011;64046;51.978;5.934;2024-02-28T02:27:56;70.35;;;23.83;;
75358;SDS011;64046;51.978;5.934;2024-02-28T02:30:25;64.53;;;21.17;;
75358;SDS011;64046;51.978;5.934;2024-02-28T02:32:57;51.92;;;20.23;;
75358;SDS011;64046;51.978;5.934;2024-02-28T02:35:26;55.80;;;20.27;;
75358;SDS011;64046;51.978;5.934;2024-02-28T02:37:58;66.35;;;24.17;;
75358;SDS011;64046;51.978;5.934;2024-02-28T02:40:27;39.95;;;18.95;;
75358;SDS011;64046;51.978;5.934;2024-02-28T02:42:57;44.45;;;18.27;;
75358;SDS011;64046;51.978;5.934;2024-02-28T02:45:26;34.42;;;15.23;;
75358;SDS011;64046;51.978;5.934;2024-02-28T02:47:55;41.65;;;15.38;;
75358;SDS011;64046;51.978;5.934;2024-02-28T02:50:25;34.35;;;16.58;;
75358;SDS011;64046;51.978;5.934;2024-02-28T02:52:59;37.72;;;17.23;;
75358;SDS011;64046;51.978;5.934;2024-02-28T02:55:28;58.80;;;18.40;;
75358;SDS011;64046;51.978;5.934;2024-02-28T02:57:57;46.05;;;19.17;;
75358;SDS011;64046;51.978;5.934;2024-02-28T03:00:26;47.40;;;17.20;;
75358;SDS011;64046;51.978;5.934;2024-02-28T03:02:58;38.95;;;17.75;;
75358;SDS011;64046;51.978;5.934;2024-02-28T03:05:27;33.90;;;15.30;;
75358;SDS011;64046;51.978;5.934;2024-02-28T03:07:59;42.13;;;15.90;;
75358;SDS011;64046;51.978;5.934;2024-02-28T03:10:29;42.63;;;17.88;;
75358;SDS011;64046;51.978;5.934;2024-02-28T03:12:58;46.17;;;17.98;;
75358;SDS011;64046;51.978;5.934;2024-02-28T03:15:27;57.40;;;20.17;;
75358;SDS011;64046;51.978;5.934;2024-02-28T03:17:58;57.97;;;17.35;;
75358;SDS011;64046;51.978;5.934;2024-02-28T03:20:28;40.20;;;17.67;;
75358;SDS011;64046;51.978;5.934;2024-02-28T03:23:00;51.72;;;16.40;;
75358;SDS011;64046;51.978;5.934;2024-02-28T03:25:29;48.63;;;19.10;;
75358;SDS011;64046;51.978;5.934;2024-02-28T03:27:58;64.70;;;20.83;;
75358;SDS011;64046;51.978;5.934;2024-02-28T03:30:28;45.90;;;21.10;;
75358;SDS011;64046;51.978;5.934;2024-02-28T03:32:59;47.88;;;20.95;;
75358;SDS011;64046;51.978;5.934;2024-02-28T03:35:29;101.60;;;34.58;;
75358;SDS011;64046;51.978;5.934;2024-02-28T03:38:01;78.60;;;36.35;;
75358;SDS011;64046;51.978;5.934;2024-02-28T03:40:30;69.55;;;26.05;;
75358;SDS011;64046;51.978;5.934;2024-02-28T03:43:00;62.70;;;28.92;;
75358;SDS011;64046;51.978;5.934;2024-02-28T03:45:29;61.53;;;25.50;;
75358;SDS011;64046;51.978;5.934;2024-02-28T03:47:58;46.28;;;18.77;;
75358;SDS011;64046;51.978;5.934;2024-02-28T03:50:28;42.97;;;19.65;;
75358;SDS011;64046;51.978;5.934;2024-02-28T03:52:57;41.80;;;19.55;;
75358;SDS011;64046;51.978;5.934;2024-02-28T03:55:29;30.77;;;15.70;;
75358;SDS011;64046;51.978;5.934;2024-02-28T03:57:58;40.22;;;17.20;;
75358;SDS011;64046;51.978;5.934;2024-02-28T04:00:28;49.40;;;21.13;;
75358;SDS011;64046;51.978;5.934;2024-02-28T04:02:58;39.95;;;16.98;;
75358;SDS011;64046;51.978;5.934;2024-02-28T04:05:27;38.90;;;17.75;;
75358;SDS011;64046;51.978;5.934;2024-02-28T04:07:56;64.63;;;20.55;;
75358;SDS011;64046;51.978;5.934;2024-02-28T04:10:28;45.55;;;16.38;;
75358;SDS011;64046;51.978;5.934;2024-02-28T04:12:58;31.63;;;14.48;;
75358;SDS011;64046;51.978;5.934;2024-02-28T04:15:28;29.95;;;14.93;;
75358;SDS011;64046;51.978;5.934;2024-02-28T04:17:58;43.10;;;17.42;;
75358;SDS011;64046;51.978;5.934;2024-02-28T04:20:29;52.38;;;20.13;;
75358;SDS011;64046;51.978;5.934;2024-02-28T04:22:59;45.75;;;18.50;;
75358;SDS011;64046;51.978;5.934;2024-02-28T04:25:31;36.22;;;16.52;;
75358;SDS011;64046;51.978;5.934;2024-02-28T04:28:01;41.13;;;17.23;;
75358;SDS011;64046;51.978;5.934;2024-02-28T04:30:31;28.77;;;15.43;;
75358;SDS011;64046;51.978;5.934;2024-02-28T04:33:00;41.70;;;19.13;;
75358;SDS011;64046;51.978;5.934;2024-02-28T04:35:30;45.35;;;18.63;;
75358;SDS011;64046;51.978;5.934;2024-02-28T04:37:59;41.22;;;18.88;;
75358;SDS011;64046;51.978;5.934;2024-02-28T04:40:31;49.53;;;19.52;;
75358;SDS011;64046;51.978;5.934;2024-02-28T04:43:01;46.25;;;19.00;;
75358;SDS011;64046;51.978;5.934;2024-02-28T04:45:31;52.40;;;18.65;;
75358;SDS011;64046;51.978;5.934;2024-02-28T04:48:00;44.15;;;17.10;;
75358;SDS011;64046;51.978;5.934;2024-02-28T04:50:29;30.83;;;16.27;;
75358;SDS011;64046;51.978;5.934;2024-02-28T04:52:59;33.58;;;16.30;;
75358;SDS011;64046;51.978;5.934;2024-02-28T04:55:32;38.17;;;15.35;;
75358;SDS011;64046;51.978;5.934;2024-02-28T04:58:02;38.25;;;17.77;;
75358;SDS011;64046;51.978;5.934;2024-02-28T05:00:31;31.38;;;16.05;;
75358;SDS011;64046;51.978;5.934;2024-02-28T05:03:01;30.23;;;15.63;;
75358;SDS011;64046;51.978;5.934;2024-02-28T05:05:30;40.13;;;18.42;;
75358;SDS011;64046;51.978;5.934;2024-02-28T05:07:59;28.23;;;14.80;;
75358;SDS011;64046;51.978;5.934;2024-02-28T05:10:31;30.42;;;15.32;;
75358;SDS011;64046;51.978;5.934;2024-02-28T05:13:01;47.35;;;19.02;;
75358;SDS011;64046;51.978;5.934;2024-02-28T05:15:31;42.00;;;17.83;;
75358;SDS011;64046;51.978;5.934;2024-02-28T05:18:00;55.30;;;18.75;;
75358;SDS011;64046;51.978;5.934;2024-02-28T05:20:32;27.30;;;14.60;;
75358;SDS011;64046;51.978;5.934;2024-02-28T05:23:02;32.97;;;13.75;;
75358;SDS011;64046;51.978;5.934;2024-02-28T05:25:34;36.67;;;13.75;;
75358;SDS011;64046;51.978;5.934;2024-02-28T05:28:06;38.30;;;15.77;;
75358;SDS011;64046;51.978;5.934;2024-02-28T05:30:36;48.17;;;18.67;;
75358;SDS011;64046;51.978;5.934;2024-02-28T05:33:06;42.65;;;17.50;;
75358;SDS011;64046;51.978;5.934;2024-02-28T05:35:37;45.42;;;18.98;;
75358;SDS011;64046;51.978;5.934;2024-02-28T05:38:06;71.47;;;20.55;;
75358;SDS011;64046;51.978;5.934;2024-02-28T05:40:38;43.50;;;17.73;;
75358;SDS011;64046;51.978;5.934;2024-02-28T05:43:10;43.28;;;18.55;;
75358;SDS011;64046;51.978;5.934;2024-02-28T05:45:39;50.03;;;18.92;;
75358;SDS011;64046;51.978;5.934;2024-02-28T05:48:08;37.33;;;17.92;;
75358;SDS011;64046;51.978;5.934;2024-02-28T05:50:38;28.05;;;15.25;;
75358;SDS011;64046;51.978;5.934;2024-02-28T05:53:07;32.92;;;14.02;;
75358;SDS011;64046;51.978;5.934;2024-02-28T05:55:39;42.35;;;17.85;;
75358;SDS011;64046;51.978;5.934;2024-02-28T05:58:08;37.28;;;16.33;;
75358;SDS011;64046;51.978;5.934;2024-02-28T06:00:38;48.83;;;17.00;;
75358;SDS011;64046;51.978;5.934;2024-02-28T06:03:07;24.27;;;13.45;;
75358;SDS011;64046;51.978;5.934;2024-02-28T06:05:36;19.15;;;11.55;;
75358;SDS011;64046;51.978;5.934;2024-02-28T06:08:06;34.60;;;17.55;;
75358;SDS011;64046;51.978;5.934;2024-02-28T06:10:38;26.95;;;15.35;;
75358;SDS011;64046;51.978;5.934;2024-02-28T06:13:08;24.40;;;13.20;;
75358;SDS011;64046;51.978;5.934;2024-02-28T06:15:37;24.63;;;13.90;;
75358;SDS011;64046;51.978;5.934;2024-02-28T06:18:08;30.88;;;16.20;;
75358;SDS011;64046;51.978;5.934;2024-02-28T06:20:39;26.63;;;15.27;;
75358;SDS011;64046;51.978;5.934;2024-02-28T06:23:08;24.70;;;12.27;;
75358;SDS011;64046;51.978;5.934;2024-02-28T06:25:41;38.17;;;12.82;;
75358;SDS011;64046;51.978;5.934;2024-02-28T06:28:10;22.67;;;12.48;;
75358;SDS011;64046;51.978;5.934;2024-02-28T06:30:39;31.52;;;13.77;;
75358;SDS011;64046;51.978;5.934;2024-02-28T06:33:09;26.20;;;13.70;;
75358;SDS011;64046;51.978;5.934;2024-02-28T06:35:40;27.88;;;12.68;;
75358;SDS011;64046;51.978;5.934;2024-02-28T06:38:09;22.70;;;11.55;;
75358;SDS011;64046;51.978;5.934;2024-02-28T06:40:41;20.90;;;12.00;;
75358;SDS011;64046;51.978;5.934;2024-02-28T06:43:11;23.30;;;12.32;;
75358;SDS011;64046;51.978;5.934;2024-02-28T06:45:40;33.70;;;14.02;;
75358;SDS011;64046;51.978;5.934;2024-02-28T06:48:09;18.67;;;11.57;;
75358;SDS011;64046;51.978;5.934;2024-02-28T06:50:39;27.17;;;14.80;;
75358;SDS011;64046;51.978;5.934;2024-02-28T06:53:08;19.17;;;11.43;;
75358;SDS011;64046;51.978;5.934;2024-02-28T06:55:37;22.13;;;13.38;;
75358;SDS011;64046;51.978;5.934;2024-02-28T06:58:11;20.13;;;12.65;;
75358;SDS011;64046;51.978;5.934;2024-02-28T07:00:41;20.05;;;13.43;;
75358;SDS011;64046;51.978;5.934;2024-02-28T07:03:10;30.17;;;17.10;;
75358;SDS011;64046;51.978;5.934;2024-02-28T07:05:39;25.27;;;15.02;;
75358;SDS011;64046;51.978;5.934;2024-02-28T07:08:11;28.92;;;13.45;;
75358;SDS011;64046;51.978;5.934;2024-02-28T07:10:43;21.00;;;12.70;;
75358;SDS011;64046;51.978;5.934;2024-02-28T07:13:15;25.50;;;14.18;;
75358;SDS011;64046;51.978;5.934;2024-02-28T07:15:44;19.15;;;12.50;;
75358;SDS011;64046;51.978;5.934;2024-02-28T07:18:14;19.02;;;12.70;;
75358;SDS011;64046;51.978;5.934;2024-02-28T07:20:44;23.55;;;13.77;;
75358;SDS011;64046;51.978;5.934;2024-02-28T07:23:13;24.88;;;15.38;;
75358;SDS011;64046;51.978;5.934;2024-02-28T07:25:45;29.77;;;15.13;;
75358;SDS011;64046;51.978;5.934;2024-02-28T07:28:15;22.80;;;14.18;;
75358;SDS011;64046;51.978;5.934;2024-02-28T07:30:44;26.95;;;13.82;;
75358;SDS011;64046;51.978;5.934;2024-02-28T07:33:14;25.52;;;13.18;;
75358;SDS011;64046;51.978;5.934;2024-02-28T07:35:46;21.85;;;13.18;;
75358;SDS011;64046;51.978;5.934;2024-02-28T07:38:16;28.77;;;17.10;;
75358;SDS011;64046;51.978;5.934;2024-02-28T07:40:48;31.45;;;18.08;;
75358;SDS011;64046;51.978;5.934;2024-02-28T07:43:18;26.70;;;16.73;;
75358;SDS011;64046;51.978;5.934;2024-02-28T07:45:48;26.70;;;15.88;;
75358;SDS011;64046;51.978;5.934;2024-02-28T07:48:17;25.13;;;15.55;;
75358;SDS011;64046;51.978;5.934;2024-02-28T07:50:46;31.75;;;17.85;;
75358;SDS011;64046;51.978;5.934;2024-02-28T07:53:16;32.10;;;18.98;;
75358;SDS011;64046;51.978;5.934;2024-02-28T07:55:48;30.85;;;17.13;;
75358;SDS011;64046;51.978;5.934;2024-02-28T07:58:18;31.45;;;17.25;;
75358;SDS011;64046;51.978;5.934;2024-02-28T08:00:47;25.00;;;14.43;;
75358;SDS011;64046;51.978;5.934;2024-02-28T08:03:18;30.63;;;16.73;;
75358;SDS011;64046;51.978;5.934;2024-02-28T08:05:47;26.23;;;15.27;;
75358;SDS011;64046;51.978;5.934;2024-02-28T08:08:17;25.23;;;16.20;;
75358;SDS011;64046;51.978;5.934;2024-02-28T08:10:49;29.90;;;16.35;;
75358;SDS011;64046;51.978;5.934;2024-02-28T08:13:19;28.67;;;16.60;;
75358;SDS011;64046;51.978;5.934;2024-02-28T08:15:48;29.40;;;16.90;;
75358;SDS011;64046;51.978;5.934;2024-02-28T08:18:18;34.80;;;18.83;;
75358;SDS011;64046;51.978;5.934;2024-02-28T08:20:48;28.55;;;16.60;;
75358;SDS011;64046;51.978;5.934;2024-02-28T08:23:19;30.17;;;16.50;;
75358;SDS011;64046;51.978;5.934;2024-02-28T08:25:51;27.98;;;14.73;;
75358;SDS011;64046;51.978;5.934;2024-02-28T08:28:20;29.27;;;17.17;;
75358;SDS011;64046;51.978;5.934;2024-02-28T08:30:50;40.03;;;19.10;;
75358;SDS011;64046;51.978;5.934;2024-02-28T08:33:19;36.65;;;20.08;;
75358;SDS011;64046;51.978;5.934;2024-02-28T08:35:49;32.60;;;19.38;;
75358;SDS011;64046;51.978;5.934;2024-02-28T08:38:19;35.45;;;18.77;;
75358;SDS011;64046;51.978;5.934;2024-02-28T08:40:51;38.08;;;21.48;;
75358;SDS011;64046;51.978;5.934;2024-02-28T08:43:20;39.45;;;19.77;;
75358;SDS011;64046;51.978;5.934;2024-02-28T08:45:50;36.58;;;18.17;;
75358;SDS011;64046;51.978;5.934;2024-02-28T08:48:21;38.40;;;19.30;;
75358;SDS011;64046;51.978;5.934;2024-02-28T08:50:51;33.53;;;17.90;;
75358;SDS011;64046;51.978;5.934;2024-02-28T08:53:20;31.77;;;16.42;;
75358;SDS011;64046;51.978;5.934;2024-02-28T08:55:53;34.03;;;17.80;;
75358;SDS011;64046;51.978;5.934;2024-02-28T08:58:22;41.45;;;20.92;;
75358;SDS011;64046;51.978;5.934;2024-02-28T09:00:54;35.92;;;17.52;;
75358;SDS011;64046;51.978;5.934;2024-02-28T09:03:23;33.83;;;19.20;;
75358;SDS011;64046;51.978;5.934;2024-02-28T09:05:52;34.47;;;16.98;;
75358;SDS011;64046;51.978;5.934;2024-02-28T09:08:22;29.95;;;15.35;;
75358;SDS011;64046;51.978;5.934;2024-02-28T09:10:54;37.60;;;19.65;;
75358;SDS011;64046;51.978;5.934;2024-02-28T09:13:23;32.60;;;17.55;;
75358;SDS011;64046;51.978;5.934;2024-02-28T09:15:53;34.20;;;18.23;;
75358;SDS011;64046;51.978;5.934;2024-02-28T09:18:23;41.40;;;19.75;;
75358;SDS011;64046;51.978;5.934;2024-02-28T09:20:55;38.60;;;19.83;;
75358;SDS011;64046;51.978;5.934;2024-02-28T09:23:24;39.72;;;21.45;;
75358;SDS011;64046;51.978;5.934;2024-02-28T09:25:56;44.00;;;22.35;;
75358;SDS011;64046;51.978;5.934;2024-02-28T09:28:26;41.38;;;22.20;;
75358;SDS011;64046;51.978;5.934;2024-02-28T09:30:55;38.50;;;20.45;;
75358;SDS011;64046;51.978;5.934;2024-02-28T09:33:24;42.80;;;22.88;;
75358;SDS011;64046;51.978;5.934;2024-02-28T09:35:54;39.42;;;22.10;;
75358;SDS011;64046;51.978;5.934;2024-02-28T09:38:26;40.65;;;20.05;;
75358;SDS011;64046;51.978;5.934;2024-02-28T09:40:58;41.53;;;21.45;;
75358;SDS011;64046;51.978;5.934;2024-02-28T09:43:28;33.53;;;19.38;;
75358;SDS011;64046;51.978;5.934;2024-02-28T09:45:59;39.83;;;21.25;;
75358;SDS011;64046;51.978;5.934;2024-02-28T09:48:32;36.63;;;20.83;;
75358;SDS011;64046;51.978;5.934;2024-02-28T09:51:02;39.22;;;21.00;;
75358;SDS011;64046;51.978;5.934;2024-02-28T09:53:32;39.67;;;20.95;;
75358;SDS011;64046;51.978;5.934;2024-02-28T09:56:04;42.13;;;21.20;;
75358;SDS011;64046;51.978;5.934;2024-02-28T09:58:35;40.03;;;22.15;;
75358;SDS011;64046;51.978;5.934;2024-02-28T10:01:08;38.75;;;21.40;;
75358;SDS011;64046;51.978;5.934;2024-02-28T10:03:45;36.25;;;21.73;;
75358;SDS011;64046;51.978;5.934;2024-02-28T10:06:17;44.60;;;23.77;;
75358;SDS011;64046;51.978;5.934;2024-02-28T10:08:47;37.15;;;21.85;;
75358;SDS011;64046;51.978;5.934;2024-02-28T10:11:22;44.25;;;22.25;;
75358;SDS011;64046;51.978;5.934;2024-02-28T10:13:52;34.95;;;20.10;;
75358;SDS011;64046;51.978;5.934;2024-02-28T10:16:23;42.35;;;23.40;;
75358;SDS011;64046;51.978;5.934;2024-02-28T10:18:52;40.63;;;24.15;;
75358;SDS011;64046;51.978;5.934;2024-02-28T10:21:22;37.13;;;21.08;;
75358;SDS011;64046;51.978;5.934;2024-02-28T10:23:52;40.55;;;21.08;;
75358;SDS011;64046;51.978;5.934;2024-02-28T10:26:24;36.45;;;20.95;;
75358;SDS011;64046;51.978;5.934;2024-02-28T10:28:55;41.97;;;23.77;;
75358;SDS011;64046;51.978;5.934;2024-02-28T10:31:25;40.75;;;23.75;;
75358;SDS011;64046;51.978;5.934;2024-02-28T10:33:55;39.65;;;22.85;;
75358;SDS011;64046;51.978;5.934;2024-02-28T10:36:24;32.90;;;19.85;;
75358;SDS011;64046;51.978;5.934;2024-02-28T10:38:55;43.15;;;24.67;;
75358;SDS011;64046;51.978;5.934;2024-02-28T10:41:27;44.72;;;23.52;;
75358;SDS011;64046;51.978;5.934;2024-02-28T10:43:57;37.22;;;21.15;;
75358;SDS011;64046;51.978;5.934;2024-02-28T10:46:26;38.80;;;22.38;;
75358;SDS011;64046;51.978;5.934;2024-02-28T10:48:57;38.92;;;22.40;;
75358;SDS011;64046;51.978;5.934;2024-02-28T10:51:26;37.45;;;21.50;;
75358;SDS011;64046;51.978;5.934;2024-02-28T10:54:00;36.35;;;22.63;;
75358;SDS011;64046;51.978;5.934;2024-02-28T10:56:39;47.35;;;24.38;;
75358;SDS011;64046;51.978;5.934;2024-02-28T10:59:10;40.47;;;24.50;;
75358;SDS011;64046;51.978;5.934;2024-02-28T11:01:40;42.63;;;24.40;;
75358;SDS011;64046;51.978;5.934;2024-02-28T11:04:11;38.22;;;22.83;;
75358;SDS011;64046;51.978;5.934;2024-02-28T11:06:48;37.45;;;22.98;;
75358;SDS011;64046;51.978;5.934;2024-02-28T11:09:19;37.40;;;22.02;;
75358;SDS011;64046;51.978;5.934;2024-02-28T11:11:54;35.40;;;21.23;;
75358;SDS011;64046;51.978;5.934;2024-02-28T11:14:24;41.03;;;24.23;;
75358;SDS011;64046;51.978;5.934;2024-02-28T11:17:00;35.85;;;21.95;;
75358;SDS011;64046;51.978;5.934;2024-02-28T11:19:30;39.63;;;23.45;;
75358;SDS011;64046;51.978;5.934;2024-02-28T11:22:01;43.55;;;26.65;;
75358;SDS011;64046;51.978;5.934;2024-02-28T11:24:31;42.25;;;24.15;;
75358;SDS011;64046;51.978;5.934;2024-02-28T11:27:05;40.38;;;22.50;;
75358;SDS011;64046;51.978;5.934;2024-02-28T11:29:34;40.75;;;23.48;;
75358;SDS011;64046;51.978;5.934;2024-02-28T11:32:04;38.17;;;23.77;;
75358;SDS011;64046;51.978;5.934;2024-02-28T11:34:36;41.42;;;23.27;;
75358;SDS011;64046;51.978;5.934;2024-02-28T11:37:06;39.42;;;24.63;;
75358;SDS011;64046;51.978;5.934;2024-02-28T11:39:37;38.35;;;21.33;;
75358;SDS011;64046;51.978;5.934;2024-02-28T11:42:13;47.45;;;23.90;;
75358;SDS011;64046;51.978;5.934;2024-02-28T11:44:42;41.25;;;21.80;;
75358;SDS011;64046;51.978;5.934;2024-02-28T11:47:11;31.88;;;20.38;;
75358;SDS011;64046;51.978;5.934;2024-02-28T11:49:41;40.75;;;24.30;;
75358;SDS011;64046;51.978;5.934;2024-02-28T11:52:10;40.15;;;20.00;;
75358;SDS011;64046;51.978;5.934;2024-02-28T11:54:40;37.90;;;22.90;;
75358;SDS011;64046;51.978;5.934;2024-02-28T11:57:13;32.92;;;20.23;;
75358;SDS011;64046;51.978;5.934;2024-02-28T11:59:43;42.38;;;25.58;;
75358;SDS011;64046;51.978;5.934;2024-02-28T12:02:14;39.70;;;24.05;;
75358;SDS011;64046;51.978;5.934;2024-02-28T12:04:44;40.30;;;23.58;;
75358;SDS011;64046;51.978;5.934;2024-02-28T12:07:16;44.15;;;25.52;;
75358;SDS011;64046;51.978;5.934;2024-02-28T12:09:46;42.55;;;22.50;;
75358;SDS011;64046;51.978;5.934;2024-02-28T12:12:18;35.92;;;20.10;;
75358;SDS011;64046;51.978;5.934;2024-02-28T12:14:50;47.15;;;27.35;;
75358;SDS011;64046;51.978;5.934;2024-02-28T12:17:20;42.67;;;24.75;;
75358;SDS011;64046;51.978;5.934;2024-02-28T12:19:49;40.53;;;23.92;;
75358;SDS011;64046;51.978;5.934;2024-02-28T12:22:18;44.22;;;25.88;;
75358;SDS011;64046;51.978;5.934;2024-02-28T12:24:48;40.83;;;24.58;;
75358;SDS011;64046;51.978;5.934;2024-02-28T12:27:20;43.08;;;25.02;;
75358;SDS011;64046;51.978;5.934;2024-02-28T12:29:49;43.47;;;24.58;;
75358;SDS011;64046;51.978;5.934;2024-02-28T12:32:18;39.38;;;24.70;;
75358;SDS011;64046;51.978;5.934;2024-02-28T12:34:47;37.65;;;22.55;;
75358;SDS011;64046;51.978;5.934;2024-02-28T12:37:18;46.92;;;26.15;;
75358;SDS011;64046;51.978;5.934;2024-02-28T12:39:48;52.20;;;26.80;;
75358;SDS011;64046;51.978;5.934;2024-02-28T12:42:19;41.28;;;24.80;;
75358;SDS011;64046;51.978;5.934;2024-02-28T12:44:49;41.58;;;23.50;;
75358;SDS011;64046;51.978;5.934;2024-02-28T12:47:18;39.22;;;21.02;;
75358;SDS011;64046;51.978;5.934;2024-02-28T12:49:47;41.42;;;25.48;;
75358;SDS011;64046;51.978;5.934;2024-02-28T12:52:17;40.72;;;23.20;;
75358;SDS011;64046;51.978;5.934;2024-02-28T12:54:46;47.83;;;24.02;;
75358;SDS011;64046;51.978;5.934;2024-02-28T12:57:16;41.28;;;24.27;;
75358;SDS011;64046;51.978;5.934;2024-02-28T12:59:48;37.53;;;22.70;;
75358;SDS011;64046;51.978;5.934;2024-02-28T13:02:17;42.20;;;22.92;;
75358;SDS011;64046;51.978;5.934;2024-02-28T13:04:47;43.22;;;23.40;;
75358;SDS011;64046;51.978;5.934;2024-02-28T13:07:17;39.00;;;20.95;;
75358;SDS011;64046;51.978;5.934;2024-02-28T13:09:48;41.58;;;21.77;;
75358;SDS011;64046;51.978;5.934;2024-02-28T13:12:18;29.90;;;19.17;;
75358;SDS011;64046;51.978;5.934;2024-02-28T13:14:51;38.70;;;20.52;;
75358;SDS011;64046;51.978;5.934;2024-02-28T13:17:20;36.00;;;19.40;;
75358;SDS011;64046;51.978;5.934;2024-02-28T13:19:49;27.55;;;17.33;;
75358;SDS011;64046;51.978;5.934;2024-02-28T13:22:19;32.15;;;19.08;;
75358;SDS011;64046;51.978;5.934;2024-02-28T13:24:48;28.63;;;17.85;;
75358;SDS011;64046;51.978;5.934;2024-02-28T13:27:18;31.13;;;19.33;;
75358;SDS011;64046;51.978;5.934;2024-02-28T13:29:47;28.58;;;16.90;;
75358;SDS011;64046;51.978;5.934;2024-02-28T13:32:19;32.35;;;19.30;;
75358;SDS011;64046;51.978;5.934;2024-02-28T13:34:49;33.97;;;19.80;;
75358;SDS011;64046;51.978;5.934;2024-02-28T13:37:18;35.08;;;19.33;;
75358;SDS011;64046;51.978;5.934;2024-02-28T13:39:48;27.30;;;16.45;;
75358;SDS011;64046;51.978;5.934;2024-02-28T13:42:18;29.98;;;16.25;;
75358;SDS011;64046;51.978;5.934;2024-02-28T13:44:52;34.42;;;19.15;;
75358;SDS011;64046;51.978;5.934;2024-02-28T13:47:24;39.35;;;19.92;;
75358;SDS011;64046;51.978;5.934;2024-02-28T13:49:53;26.70;;;15.75;;
75358;SDS011;64046;51.978;5.934;2024-02-28T13:52:22;26.30;;;14.93;;
75358;SDS011;64046;51.978;5.934;2024-02-28T13:54:52;30.08;;;17.23;;
75358;SDS011;64046;51.978;5.934;2024-02-28T13:57:21;25.17;;;15.20;;
75358;SDS011;64046;51.978;5.934;2024-02-28T13:59:51;22.50;;;13.38;;
75358;SDS011;64046;51.978;5.934;2024-02-28T14:02:25;24.75;;;15.50;;
75358;SDS011;64046;51.978;5.934;2024-02-28T14:04:56;28.88;;;17.75;;
75358;SDS011;64046;51.978;5.934;2024-02-28T14:07:26;30.38;;;18.10;;
75358;SDS011;64046;51.978;5.934;2024-02-28T14:09:55;33.92;;;18.15;;
75358;SDS011;64046;51.978;5.934;2024-02-28T14:12:25;33.28;;;19.00;;
75358;SDS011;64046;51.978;5.934;2024-02-28T14:14:55;36.20;;;19.75;;
75358;SDS011;64046;51.978;5.934;2024-02-28T14:17:27;34.15;;;19.33;;
75358;SDS011;64046;51.978;5.934;2024-02-28T14:19:57;34.00;;;18.42;;
75358;SDS011;64046;51.978;5.934;2024-02-28T14:22:26;33.67;;;18.27;;
75358;SDS011;64046;51.978;5.934;2024-02-28T14:24:56;37.88;;;21.00;;
75358;SDS011;64046;51.978;5.934;2024-02-28T14:27:25;35.95;;;20.13;;
75358;SDS011;64046;51.978;5.934;2024-02-28T14:29:58;30.42;;;17.67;;
75358;SDS011;64046;51.978;5.934;2024-02-28T14:32:30;34.83;;;20.35;;
75358;SDS011;64046;51.978;5.934;2024-02-28T14:35:00;36.95;;;19.45;;
75358;SDS011;64046;51.978;5.934;2024-02-28T14:37:30;45.75;;;23.10;;